sensor_id;sensor_type;location;lat;lon;timestamp;P1;durP1;ratioP1;P2;durP2;ratioP2
2854;SDS011;1435;49.472;10.940;2023-11-21T00:02:06;1.60;;;1.17;;
2854;SDS011;1435;49.472;10.940;2023-11-21T00:07:08;2.27;;;1.83;;
2854;SDS011;1435;49.472;10.940;2023-11-21T00:12:10;1.23;;;1.07;;
2854;SDS011;1435;49.472;10.940;2023-11-21T00:17:13;1.23;;;0.90;;
2854;SDS011;1435;49.472;10.940;2023-11-21T00:22:14;1.87;;;1.20;;
2854;SDS011;1435;49.472;10.940;2023-11-21T00:27:17;1.67;;;0.90;;
2854;SDS011;1435;49.472;10.940;2023-11-21T00:32:20;2.20;;;0.90;;
2854;SDS011;1435;49.472;10.940;2023-11-21T00:37:21;1.60;;;1.50;;
2854;SDS011;1435;49.472;10.940;2023-11-21T00:42:24;0.80;;;0.80;;
2854;SDS011;1435;49.472;10.940;2023-11-21T00:47:27;1.10;;;1.00;;
2854;SDS011;1435;49.472;10.940;2023-11-21T00:52:28;1.47;;;1.37;;
2854;SDS011;1435;49.472;10.940;2023-11-21T00:57:30;4.00;;;1.20;;
2854;SDS011;1435;49.472;10.940;2023-11-21T01:02:33;3.40;;;1.30;;
2854;SDS011;1435;49.472;10.940;2023-11-21T01:07:35;2.63;;;1.77;;
2854;SDS011;1435;49.472;10.940;2023-11-21T01:12:38;2.13;;;1.00;;
2854;SDS011;1435;49.472;10.940;2023-11-21T01:17:41;1.17;;;1.07;;
2854;SDS011;1435;49.472;10.940;2023-11-21T01:22:42;1.70;;;1.00;;
2854;SDS011;1435;49.472;10.940;2023-11-21T01:27:44;3.50;;;1.10;;
2854;SDS011;1435;49.472;10.940;2023-11-21T01:32:48;2.50;;;1.00;;
2854;SDS011;1435;49.472;10.940;2023-11-21T01:37:50;1.53;;;1.20;;
2854;SDS011;1435;49.472;10.940;2023-11-21T01:42:52;2.20;;;1.10;;
2854;SDS011;1435;49.472;10.940;2023-11-21T01:47:56;1.67;;;1.10;;
2854;SDS011;1435;49.472;10.940;2023-11-21T01:52:58;2.10;;;1.00;;
2854;SDS011;1435;49.472;10.940;2023-11-21T01:58:01;1.87;;;1.00;;
2854;SDS011;1435;49.472;10.940;2023-11-21T02:03:04;1.30;;;0.90;;
2854;SDS011;1435;49.472;10.940;2023-11-21T02:08:07;2.30;;;1.13;;
2854;SDS011;1435;49.472;10.940;2023-11-21T02:13:09;2.10;;;1.37;;
2854;SDS011;1435;49.472;10.940;2023-11-21T02:18:12;2.23;;;1.40;;
2854;SDS011;1435;49.472;10.940;2023-11-21T02:23:16;1.33;;;1.23;;
2854;SDS011;1435;49.472;10.940;2023-11-21T02:28:18;3.33;;;1.00;;
2854;SDS011;1435;49.472;10.940;2023-11-21T02:33:25;1.10;;;0.70;;
2854;SDS011;1435;49.472;10.940;2023-11-21T02:38:28;2.30;;;1.27;;
2854;SDS011;1435;49.472;10.940;2023-11-21T02:43:30;1.23;;;0.83;;
2854;SDS011;1435;49.472;10.940;2023-11-21T02:48:32;1.27;;;1.17;;
2854;SDS011;1435;49.472;10.940;2023-11-21T02:53:35;2.10;;;1.10;;
2854;SDS011;1435;49.472;10.940;2023-11-21T02:58:40;3.80;;;1.20;;
2854;SDS011;1435;49.472;10.940;2023-11-21T03:03:43;0.97;;;0.97;;
2854;SDS011;1435;49.472;10.940;2023-11-21T03:08:47;2.57;;;1.30;;
2854;SDS011;1435;49.472;10.940;2023-11-21T03:13:48;3.93;;;1.60;;
2854;SDS011;1435;49.472;10.940;2023-11-21T03:18:50;1.80;;;1.30;;
2854;SDS011;1435;49.472;10.940;2023-11-21T03:23:53;4.40;;;1.50;;
2854;SDS011;1435;49.472;10.940;2023-11-21T03:28:55;1.23;;;1.17;;
2854;SDS011;1435;49.472;10.940;2023-11-21T03:33:57;3.10;;;1.10;;
2854;SDS011;1435;49.472;10.940;2023-11-21T03:39:00;1.20;;;1.10;;
2854;SDS011;1435;49.472;10.940;2023-11-21T03:44:02;5.23;;;1.30;;
2854;SDS011;1435;49.472;10.940;2023-11-21T03:49:04;2.37;;;1.47;;
2854;SDS011;1435;49.472;10.940;2023-11-21T03:54:08;1.40;;;1.30;;
2854;SDS011;1435;49.472;10.940;2023-11-21T03:59:10;2.80;;;1.40;;
2854;SDS011;1435;49.472;10.940;2023-11-21T04:04:12;1.80;;;1.40;;
2854;SDS011;1435;49.472;10.940;2023-11-21T04:09:14;1.50;;;1.40;;
2854;SDS011;1435;49.472;10.940;2023-11-21T04:14:16;4.63;;;1.77;;
2854;SDS011;1435;49.472;10.940;2023-11-21T04:19:18;1.70;;;1.60;;
2854;SDS011;1435;49.472;10.940;2023-11-21T04:24:21;3.00;;;1.63;;
2854;SDS011;1435;49.472;10.940;2023-11-21T04:29:22;5.03;;;1.63;;
2854;SDS011;1435;49.472;10.940;2023-11-21T04:34:25;3.00;;;1.90;;
2854;SDS011;1435;49.472;10.940;2023-11-21T04:39:28;1.77;;;1.67;;
2854;SDS011;1435;49.472;10.940;2023-11-21T04:44:29;1.63;;;1.53;;
2854;SDS011;1435;49.472;10.940;2023-11-21T04:49:31;1.77;;;1.67;;
2854;SDS011;1435;49.472;10.940;2023-11-21T04:54:34;2.07;;;1.97;;
2854;SDS011;1435;49.472;10.940;2023-11-21T04:59:36;2.97;;;1.87;;
2854;SDS011;1435;49.472;10.940;2023-11-21T05:04:38;3.33;;;2.77;;
2854;SDS011;1435;49.472;10.940;2023-11-21T05:09:42;2.57;;;2.23;;
2854;SDS011;1435;49.472;10.940;2023-11-21T05:14:46;2.70;;;2.00;;
2854;SDS011;1435;49.472;10.940;2023-11-21T05:19:48;2.73;;;2.00;;
2854;SDS011;1435;49.472;10.940;2023-11-21T05:24:51;2.77;;;1.80;;
2854;SDS011;1435;49.472;10.940;2023-11-21T05:29:53;3.90;;;1.87;;
2854;SDS011;1435;49.472;10.940;2023-11-21T05:34:55;2.97;;;2.10;;
2854;SDS011;1435;49.472;10.940;2023-11-21T05:39:58;2.13;;;1.90;;
2854;SDS011;1435;49.472;10.940;2023-11-21T05:45:05;2.43;;;2.00;;
2854;SDS011;1435;49.472;10.940;2023-11-21T05:50:10;2.27;;;2.03;;
2854;SDS011;1435;49.472;10.940;2023-11-21T05:55:16;1.67;;;1.57;;
2854;SDS011;1435;49.472;10.940;2023-11-21T06:00:17;2.30;;;2.10;;
2854;SDS011;1435;49.472;10.940;2023-11-21T06:05:20;2.70;;;1.83;;
2854;SDS011;1435;49.472;10.940;2023-11-21T06:10:25;1.73;;;1.43;;
2854;SDS011;1435;49.472;10.940;2023-11-21T06:15:28;2.00;;;1.63;;
2854;SDS011;1435;49.472;10.940;2023-11-21T06:20:29;3.43;;;1.80;;
2854;SDS011;1435;49.472;10.940;2023-11-21T06:25:33;4.60;;;2.67;;
2854;SDS011;1435;49.472;10.940;2023-11-21T06:30:36;2.10;;;1.90;;
2854;SDS011;1435;49.472;10.940;2023-11-21T06:35:38;3.30;;;2.33;;
2854;SDS011;1435;49.472;10.940;2023-11-21T06:40:41;2.73;;;2.53;;
2854;SDS011;1435;49.472;10.940;2023-11-21T06:45:43;5.13;;;2.50;;
2854;SDS011;1435;49.472;10.940;2023-11-21T06:50:44;3.63;;;2.60;;
2854;SDS011;1435;49.472;10.940;2023-11-21T06:55:48;3.27;;;2.30;;
2854;SDS011;1435;49.472;10.940;2023-11-21T07:00:49;3.23;;;2.70;;
2854;SDS011;1435;49.472;10.940;2023-11-21T07:05:52;3.73;;;3.43;;
2854;SDS011;1435;49.472;10.940;2023-11-21T07:10:55;4.23;;;2.70;;
2854;SDS011;1435;49.472;10.940;2023-11-21T07:15:57;4.50;;;2.70;;
2854;SDS011;1435;49.472;10.940;2023-11-21T07:20:59;6.37;;;2.60;;
2854;SDS011;1435;49.472;10.940;2023-11-21T07:26:03;3.67;;;2.47;;
2854;SDS011;1435;49.472;10.940;2023-11-21T07:31:09;3.03;;;2.73;;
2854;SDS011;1435;49.472;10.940;2023-11-21T07:36:10;4.60;;;3.23;;
2854;SDS011;1435;49.472;10.940;2023-11-21T07:41:13;3.90;;;3.33;;
2854;SDS011;1435;49.472;10.940;2023-11-21T07:46:16;3.43;;;2.90;;
2854;SDS011;1435;49.472;10.940;2023-11-21T07:51:18;5.50;;;3.80;;
2854;SDS011;1435;49.472;10.940;2023-11-21T07:56:21;3.73;;;3.00;;
2854;SDS011;1435;49.472;10.940;2023-11-21T08:01:23;6.00;;;3.23;;
2854;SDS011;1435;49.472;10.940;2023-11-21T08:06:25;5.30;;;4.00;;
2854;SDS011;1435;49.472;10.940;2023-11-21T08:11:28;5.60;;;5.20;;
2854;SDS011;1435;49.472;10.940;2023-11-21T08:16:31;4.53;;;4.13;;
2854;SDS011;1435;49.472;10.940;2023-11-21T08:21:33;4.00;;;3.70;;
2854;SDS011;1435;49.472;10.940;2023-11-21T08:26:39;8.00;;;3.27;;
2854;SDS011;1435;49.472;10.940;2023-11-21T08:31:40;4.57;;;3.47;;
2854;SDS011;1435;49.472;10.940;2023-11-21T08:36:42;5.10;;;4.60;;
2854;SDS011;1435;49.472;10.940;2023-11-21T08:41:45;5.27;;;3.93;;
2854;SDS011;1435;49.472;10.940;2023-11-21T08:46:48;4.87;;;4.10;;
2854;SDS011;1435;49.472;10.940;2023-11-21T08:51:49;4.80;;;3.50;;
2854;SDS011;1435;49.472;10.940;2023-11-21T08:56:53;5.10;;;3.87;;
2854;SDS011;1435;49.472;10.940;2023-11-21T09:01:55;3.90;;;3.60;;
2854;SDS011;1435;49.472;10.940;2023-11-21T09:06:57;6.23;;;3.93;;
2854;SDS011;1435;49.472;10.940;2023-11-21T09:12:01;6.93;;;3.80;;
2854;SDS011;1435;49.472;10.940;2023-11-21T09:17:03;3.60;;;3.40;;
2854;SDS011;1435;49.472;10.940;2023-11-21T09:22:10;4.57;;;3.47;;
2854;SDS011;1435;49.472;10.940;2023-11-21T09:27:13;7.57;;;4.80;;
2854;SDS011;1435;49.472;10.940;2023-11-21T09:32:15;7.10;;;4.60;;
2854;SDS011;1435;49.472;10.940;2023-11-21T09:37:18;6.20;;;5.27;;
2854;SDS011;1435;49.472;10.940;2023-11-21T09:42:22;5.60;;;4.07;;
2854;SDS011;1435;49.472;10.940;2023-11-21T09:47:27;5.93;;;4.57;;
2854;SDS011;1435;49.472;10.940;2023-11-21T09:52:29;4.40;;;4.00;;
2854;SDS011;1435;49.472;10.940;2023-11-21T09:57:34;5.47;;;4.93;;
2854;SDS011;1435;49.472;10.940;2023-11-21T10:02:35;6.57;;;4.70;;
2854;SDS011;1435;49.472;10.940;2023-11-21T10:07:38;4.53;;;4.13;;
2854;SDS011;1435;49.472;10.940;2023-11-21T10:12:42;4.50;;;3.83;;
2854;SDS011;1435;49.472;10.940;2023-11-21T10:17:49;10.63;;;5.10;;
2854;SDS011;1435;49.472;10.940;2023-11-21T10:22:53;6.13;;;4.47;;
2854;SDS011;1435;49.472;10.940;2023-11-21T10:28:01;7.40;;;4.97;;
2854;SDS011;1435;49.472;10.940;2023-11-21T10:33:05;6.63;;;5.03;;
2854;SDS011;1435;49.472;10.940;2023-11-21T10:38:08;6.00;;;5.17;;
2854;SDS011;1435;49.472;10.940;2023-11-21T10:43:11;5.57;;;5.07;;
2854;SDS011;1435;49.472;10.940;2023-11-21T10:48:15;4.77;;;4.33;;
2854;SDS011;1435;49.472;10.940;2023-11-21T10:53:17;4.43;;;4.03;;
2854;SDS011;1435;49.472;10.940;2023-11-21T10:58:20;5.07;;;4.33;;
2854;SDS011;1435;49.472;10.940;2023-11-21T11:03:22;5.47;;;4.70;;
2854;SDS011;1435;49.472;10.940;2023-11-21T11:08:24;4.90;;;3.93;;
2854;SDS011;1435;49.472;10.940;2023-11-21T11:13:29;4.67;;;4.20;;
2854;SDS011;1435;49.472;10.940;2023-11-21T11:18:31;4.23;;;3.83;;
2854;SDS011;1435;49.472;10.940;2023-11-21T11:23:39;4.30;;;3.90;;
2854;SDS011;1435;49.472;10.940;2023-11-21T11:28:54;3.60;;;3.30;;
2854;SDS011;1435;49.472;10.940;2023-11-21T11:34:08;3.53;;;2.93;;
2854;SDS011;1435;49.472;10.940;2023-11-21T11:39:29;3.20;;;2.90;;
2854;SDS011;1435;49.472;10.940;2023-11-21T11:44:49;3.43;;;3.13;;
2854;SDS011;1435;49.472;10.940;2023-11-21T11:50:03;2.97;;;2.60;;
2854;SDS011;1435;49.472;10.940;2023-11-21T11:55:11;3.20;;;3.00;;
2854;SDS011;1435;49.472;10.940;2023-11-21T12:00:16;2.97;;;2.10;;
2854;SDS011;1435;49.472;10.940;2023-11-21T12:05:21;4.03;;;3.70;;
2854;SDS011;1435;49.472;10.940;2023-11-21T12:10:28;3.47;;;3.17;;
2854;SDS011;1435;49.472;10.940;2023-11-21T12:15:32;3.27;;;2.97;;
2854;SDS011;1435;49.472;10.940;2023-11-21T12:20:34;2.57;;;2.37;;
2854;SDS011;1435;49.472;10.940;2023-11-21T12:25:38;2.77;;;2.57;;
2854;SDS011;1435;49.472;10.940;2023-11-21T12:30:42;3.50;;;3.20;;
2854;SDS011;1435;49.472;10.940;2023-11-21T12:35:45;3.37;;;3.07;;
2854;SDS011;1435;49.472;10.940;2023-11-21T12:40:47;2.60;;;2.40;;
2854;SDS011;1435;49.472;10.940;2023-11-21T12:45:50;3.77;;;2.37;;
2854;SDS011;1435;49.472;10.940;2023-11-21T12:50:52;4.17;;;3.27;;
2854;SDS011;1435;49.472;10.940;2023-11-21T12:55:55;4.37;;;3.87;;
2854;SDS011;1435;49.472;10.940;2023-11-21T13:00:59;4.17;;;3.70;;
2854;SDS011;1435;49.472;10.940;2023-11-21T13:06:04;4.20;;;3.50;;
2854;SDS011;1435;49.472;10.940;2023-11-21T13:11:07;4.43;;;4.03;;
2854;SDS011;1435;49.472;10.940;2023-11-21T13:16:10;4.50;;;3.60;;
2854;SDS011;1435;49.472;10.940;2023-11-21T13:21:13;3.17;;;2.87;;
2854;SDS011;1435;49.472;10.940;2023-11-21T13:26:15;3.53;;;3.20;;
2854;SDS011;1435;49.472;10.940;2023-11-21T13:31:18;2.70;;;2.50;;
2854;SDS011;1435;49.472;10.940;2023-11-21T13:36:26;2.53;;;2.07;;
2854;SDS011;1435;49.472;10.940;2023-11-21T13:41:32;3.07;;;2.70;;
2854;SDS011;1435;49.472;10.940;2023-11-21T13:46:36;3.50;;;3.20;;
2854;SDS011;1435;49.472;10.940;2023-11-21T13:51:38;3.33;;;3.03;;
2854;SDS011;1435;49.472;10.940;2023-11-21T13:56:43;3.57;;;3.07;;
2854;SDS011;1435;49.472;10.940;2023-11-21T14:01:50;3.60;;;2.37;;
2854;SDS011;1435;49.472;10.940;2023-11-21T14:06:56;2.50;;;2.30;;
2854;SDS011;1435;49.472;10.940;2023-11-21T14:12:00;4.27;;;3.17;;
2854;SDS011;1435;49.472;10.940;2023-11-21T14:17:07;3.37;;;2.40;;
2854;SDS011;1435;49.472;10.940;2023-11-21T14:22:10;3.60;;;2.10;;
2854;SDS011;1435;49.472;10.940;2023-11-21T14:27:12;5.33;;;3.00;;
2854;SDS011;1435;49.472;10.940;2023-11-21T14:32:16;2.20;;;2.10;;
2854;SDS011;1435;49.472;10.940;2023-11-21T14:37:17;2.73;;;2.20;;
2854;SDS011;1435;49.472;10.940;2023-11-21T14:42:20;4.10;;;2.30;;
2854;SDS011;1435;49.472;10.940;2023-11-21T14:47:26;2.83;;;2.30;;
2854;SDS011;1435;49.472;10.940;2023-11-21T14:52:28;4.53;;;2.60;;
2854;SDS011;1435;49.472;10.940;2023-11-21T14:57:34;2.47;;;2.00;;
2854;SDS011;1435;49.472;10.940;2023-11-21T15:02:37;2.70;;;2.10;;
2854;SDS011;1435;49.472;10.940;2023-11-21T15:07:49;3.23;;;2.87;;
2854;SDS011;1435;49.472;10.940;2023-11-21T15:12:55;2.87;;;2.00;;
2854;SDS011;1435;49.472;10.940;2023-11-21T15:17:59;4.13;;;1.77;;
2854;SDS011;1435;49.472;10.940;2023-11-21T15:23:01;2.90;;;2.30;;
2854;SDS011;1435;49.472;10.940;2023-11-21T15:28:03;3.77;;;1.73;;
2854;SDS011;1435;49.472;10.940;2023-11-21T15:33:07;1.73;;;1.47;;
2854;SDS011;1435;49.472;10.940;2023-11-21T15:38:09;2.83;;;1.90;;
2854;SDS011;1435;49.472;10.940;2023-11-21T15:43:10;3.97;;;1.83;;
2854;SDS011;1435;49.472;10.940;2023-11-21T15:48:13;2.73;;;1.70;;
2854;SDS011;1435;49.472;10.940;2023-11-21T15:53:16;3.53;;;1.70;;
2854;SDS011;1435;49.472;10.940;2023-11-21T15:58:18;5.13;;;2.47;;
2854;SDS011;1435;49.472;10.940;2023-11-21T16:03:21;2.40;;;2.00;;
2854;SDS011;1435;49.472;10.940;2023-11-21T16:08:23;5.43;;;1.90;;
2854;SDS011;1435;49.472;10.940;2023-11-21T16:13:26;3.30;;;2.10;;
2854;SDS011;1435;49.472;10.940;2023-11-21T16:18:29;2.10;;;2.00;;
2854;SDS011;1435;49.472;10.940;2023-11-21T16:23:31;2.37;;;1.90;;
2854;SDS011;1435;49.472;10.940;2023-11-21T16:28:32;3.53;;;2.00;;
2854;SDS011;1435;49.472;10.940;2023-11-21T16:33:35;4.23;;;2.43;;
2854;SDS011;1435;49.472;10.940;2023-11-21T16:38:37;3.67;;;2.83;;
2854;SDS011;1435;49.472;10.940;2023-11-21T16:43:39;4.23;;;2.17;;
2854;SDS011;1435;49.472;10.940;2023-11-21T16:48:42;4.65;;;3.08;;
2854;SDS011;1435;49.472;10.940;2023-11-21T16:53:44;2.63;;;2.43;;
2854;SDS011;1435;49.472;10.940;2023-11-21T16:58:46;3.97;;;3.40;;
2854;SDS011;1435;49.472;10.940;2023-11-21T17:03:49;7.13;;;3.17;;
2854;SDS011;1435;49.472;10.940;2023-11-21T17:08:51;9.67;;;3.50;;
2854;SDS011;1435;49.472;10.940;2023-11-21T17:13:53;2.90;;;2.60;;
2854;SDS011;1435;49.472;10.940;2023-11-21T17:18:56;6.30;;;3.27;;
2854;SDS011;1435;49.472;10.940;2023-11-21T17:23:58;4.43;;;4.13;;
2854;SDS011;1435;49.472;10.940;2023-11-21T17:29:01;6.80;;;4.30;;
2854;SDS011;1435;49.472;10.940;2023-11-21T17:34:04;9.03;;;5.20;;
2854;SDS011;1435;49.472;10.940;2023-11-21T17:39:05;11.93;;;4.40;;
2854;SDS011;1435;49.472;10.940;2023-11-21T17:44:10;4.83;;;3.77;;
2854;SDS011;1435;49.472;10.940;2023-11-21T17:49:13;8.20;;;4.17;;
2854;SDS011;1435;49.472;10.940;2023-11-21T17:54:15;4.53;;;3.80;;
2854;SDS011;1435;49.472;10.940;2023-11-21T17:59:18;6.60;;;4.77;;
2854;SDS011;1435;49.472;10.940;2023-11-21T18:04:22;5.70;;;5.13;;
2854;SDS011;1435;49.472;10.940;2023-11-21T18:09:24;9.70;;;4.70;;
2854;SDS011;1435;49.472;10.940;2023-11-21T18:14:26;7.87;;;6.07;;
2854;SDS011;1435;49.472;10.940;2023-11-21T18:19:29;9.10;;;7.43;;
2854;SDS011;1435;49.472;10.940;2023-11-21T18:24:31;13.27;;;8.50;;
2854;SDS011;1435;49.472;10.940;2023-11-21T18:29:33;7.57;;;5.67;;
2854;SDS011;1435;49.472;10.940;2023-11-21T18:34:36;10.10;;;6.00;;
2854;SDS011;1435;49.472;10.940;2023-11-21T18:39:37;8.00;;;5.93;;
2854;SDS011;1435;49.472;10.940;2023-11-21T18:44:40;7.40;;;5.53;;
2854;SDS011;1435;49.472;10.940;2023-11-21T18:49:44;9.57;;;5.33;;
2854;SDS011;1435;49.472;10.940;2023-11-21T18:54:45;7.20;;;6.07;;
2854;SDS011;1435;49.472;10.940;2023-11-21T18:59:48;13.53;;;8.00;;
2854;SDS011;1435;49.472;10.940;2023-11-21T19:04:51;9.47;;;6.63;;
2854;SDS011;1435;49.472;10.940;2023-11-21T19:09:53;10.43;;;6.77;;
2854;SDS011;1435;49.472;10.940;2023-11-21T19:14:55;21.10;;;10.93;;
2854;SDS011;1435;49.472;10.940;2023-11-21T19:19:58;20.93;;;10.07;;
2854;SDS011;1435;49.472;10.940;2023-11-21T19:25:00;14.33;;;9.07;;
2854;SDS011;1435;49.472;10.940;2023-11-21T19:30:02;13.67;;;9.23;;
2854;SDS011;1435;49.472;10.940;2023-11-21T19:35:06;11.37;;;7.90;;
2854;SDS011;1435;49.472;10.940;2023-11-21T19:40:09;13.60;;;7.90;;
2854;SDS011;1435;49.472;10.940;2023-11-21T19:45:12;8.33;;;6.70;;
2854;SDS011;1435;49.472;10.940;2023-11-21T19:50:15;9.50;;;5.40;;
2854;SDS011;1435;49.472;10.940;2023-11-21T19:55:17;7.83;;;5.00;;
2854;SDS011;1435;49.472;10.940;2023-11-21T20:00:19;9.00;;;4.60;;
2854;SDS011;1435;49.472;10.940;2023-11-21T20:05:22;2.20;;;1.77;;
2854;SDS011;1435;49.472;10.940;2023-11-21T20:10:23;2.40;;;2.20;;
2854;SDS011;1435;49.472;10.940;2023-11-21T20:15:25;2.97;;;2.77;;
2854;SDS011;1435;49.472;10.940;2023-11-21T20:20:28;2.83;;;2.03;;
2854;SDS011;1435;49.472;10.940;2023-11-21T20:25:30;2.97;;;1.83;;
2854;SDS011;1435;49.472;10.940;2023-11-21T20:30:33;1.50;;;1.40;;
2854;SDS011;1435;49.472;10.940;2023-11-21T20:35:36;2.03;;;1.90;;
2854;SDS011;1435;49.472;10.940;2023-11-21T20:40:40;2.70;;;2.23;;
2854;SDS011;1435;49.472;10.940;2023-11-21T20:45:42;2.40;;;1.87;;
2854;SDS011;1435;49.472;10.940;2023-11-21T20:50:45;2.43;;;1.70;;
2854;SDS011;1435;49.472;10.940;2023-11-21T20:55:47;2.17;;;1.97;;
2854;SDS011;1435;49.472;10.940;2023-11-21T21:00:49;1.90;;;1.80;;
2854;SDS011;1435;49.472;10.940;2023-11-21T21:05:52;2.23;;;2.07;;
2854;SDS011;1435;49.472;10.940;2023-11-21T21:10:55;1.80;;;1.70;;
2854;SDS011;1435;49.472;10.940;2023-11-21T21:15:58;2.33;;;2.13;;
2854;SDS011;1435;49.472;10.940;2023-11-21T21:21:01;3.13;;;2.67;;
2854;SDS011;1435;49.472;10.940;2023-11-21T21:26:03;2.97;;;2.77;;
2854;SDS011;1435;49.472;10.940;2023-11-21T21:31:07;3.17;;;2.30;;
2854;SDS011;1435;49.472;10.940;2023-11-21T21:36:11;2.30;;;1.90;;
2854;SDS011;1435;49.472;10.940;2023-11-21T21:41:15;2.40;;;1.90;;
2854;SDS011;1435;49.472;10.940;2023-11-21T21:46:18;2.60;;;2.40;;
2854;SDS011;1435;49.472;10.940;2023-11-21T21:51:22;2.97;;;2.30;;
2854;SDS011;1435;49.472;10.940;2023-11-21T21:56:24;2.40;;;2.20;;
2854;SDS011;1435;49.472;10.940;2023-11-21T22:01:27;2.60;;;2.27;;
2854;SDS011;1435;49.472;10.940;2023-11-21T22:06:32;2.70;;;2.50;;
2854;SDS011;1435;49.472;10.940;2023-11-21T22:11:34;1.87;;;1.77;;
2854;SDS011;1435;49.472;10.940;2023-11-21T22:16:35;2.90;;;2.60;;
2854;SDS011;1435;49.472;10.940;2023-11-21T22:21:38;2.93;;;2.53;;
2854;SDS011;1435;49.472;10.940;2023-11-21T22:26:40;3.30;;;3.00;;
2854;SDS011;1435;49.472;10.940;2023-11-21T22:31:42;4.00;;;2.90;;
2854;SDS011;1435;49.472;10.940;2023-11-21T22:36:45;2.77;;;2.57;;
2854;SDS011;1435;49.472;10.940;2023-11-21T22:41:47;3.30;;;2.60;;
2854;SDS011;1435;49.472;10.940;2023-11-21T22:46:50;3.10;;;2.30;;
2854;SDS011;1435;49.472;10.940;2023-11-21T22:51:54;3.10;;;2.70;;
2854;SDS011;1435;49.472;10.940;2023-11-21T22:56:56;3.70;;;2.50;;
2854;SDS011;1435;49.472;10.940;2023-11-21T23:01:58;3.93;;;3.10;;
2854;SDS011;1435;49.472;10.940;2023-11-21T23:07:01;3.17;;;2.87;;
2854;SDS011;1435;49.472;10.940;2023-11-21T23:12:04;3.57;;;3.27;;
2854;SDS011;1435;49.472;10.940;2023-11-21T23:17:07;4.37;;;3.53;;
2854;SDS011;1435;49.472;10.940;2023-11-21T23:22:10;6.90;;;4.70;;
2854;SDS011;1435;49.472;10.940;2023-11-21T23:27:11;3.90;;;3.27;;
2854;SDS011;1435;49.472;10.940;2023-11-21T23:32:13;5.70;;;4.20;;
2854;SDS011;1435;49.472;10.940;2023-11-21T23:37:16;6.20;;;5.20;;
2854;SDS011;1435;49.472;10.940;2023-11-21T23:42:18;6.10;;;5.23;;
2854;SDS011;1435;49.472;10.940;2023-11-21T23:47:20;7.80;;;6.40;;
2854;SDS011;1435;49.472;10.940;2023-11-21T23:52:23;6.20;;;5.53;;
2854;SDS011;1435;49.472;10.940;2023-11-21T23:57:24;7.03;;;5.90;;
